sensor_id;sensor_type;location;lat;lon;timestamp;temperature;humidity
46490;DHT22;32204;49.160;8.580;2023-08-30T00:00:36;17.00;99.90
46490;DHT22;32204;49.160;8.580;2023-08-30T00:03:02;17.00;99.90
46490;DHT22;32204;49.160;8.580;2023-08-30T00:05:28;17.00;99.90
46490;DHT22;32204;49.160;8.580;2023-08-30T00:07:53;16.80;99.90
46490;DHT22;32204;49.160;8.580;2023-08-30T00:10:19;16.80;1.00
46490;DHT22;32204;49.160;8.580;2023-08-30T00:12:44;16.80;1.00
46490;DHT22;32204;49.160;8.580;2023-08-30T00:15:10;16.80;1.00
46490;DHT22;32204;49.160;8.580;2023-08-30T00:17:35;16.90;1.00
46490;DHT22;32204;49.160;8.580;2023-08-30T00:20:01;16.90;99.90
46490;DHT22;32204;49.160;8.580;2023-08-30T00:22:26;17.00;99.90
46490;DHT22;32204;49.160;8.580;2023-08-30T00:24:53;16.90;90.40
46490;DHT22;32204;49.160;8.580;2023-08-30T00:27:18;17.00;99.90
46490;DHT22;32204;49.160;8.580;2023-08-30T00:29:46;17.00;1.00
46490;DHT22;32204;49.160;8.580;2023-08-30T00:32:11;17.10;1.00
46490;DHT22;32204;49.160;8.580;2023-08-30T00:34:37;17.10;99.90
46490;DHT22;32204;49.160;8.580;2023-08-30T00:37:02;17.10;99.90
46490;DHT22;32204;49.160;8.580;2023-08-30T00:39:28;17.10;99.90
46490;DHT22;32204;49.160;8.580;2023-08-30T00:41:53;17.10;99.90
46490;DHT22;32204;49.160;8.580;2023-08-30T00:44:19;17.10;1.00
46490;DHT22;32204;49.160;8.580;2023-08-30T00:46:44;17.10;7.20
46490;DHT22;32204;49.160;8.580;2023-08-30T00:49:10;17.00;61.40
46490;DHT22;32204;49.160;8.580;2023-08-30T00:51:35;17.00;99.90
46490;DHT22;32204;49.160;8.580;2023-08-30T00:54:01;17.00;99.90
46490;DHT22;32204;49.160;8.580;2023-08-30T00:56:27;17.00;99.90
46490;DHT22;32204;49.160;8.580;2023-08-30T00:58:53;17.00;99.90
46490;DHT22;32204;49.160;8.580;2023-08-30T01:01:18;17.00;99.90
46490;DHT22;32204;49.160;8.580;2023-08-30T01:03:44;17.00;99.90
46490;DHT22;32204;49.160;8.580;2023-08-30T01:06:10;16.90;99.90
46490;DHT22;32204;49.160;8.580;2023-08-30T01:08:36;16.90;99.90
46490;DHT22;32204;49.160;8.580;2023-08-30T01:11:09;17.00;99.90
46490;DHT22;32204;49.160;8.580;2023-08-30T01:14:11;17.00;99.90
46490;DHT22;32204;49.160;8.580;2023-08-30T01:16:28;17.00;1.00
46490;DHT22;32204;49.160;8.580;2023-08-30T01:18:55;17.00;1.00
46490;DHT22;32204;49.160;8.580;2023-08-30T01:21:41;16.90;99.90
46490;DHT22;32204;49.160;8.580;2023-08-30T01:24:09;16.80;99.90
46490;DHT22;32204;49.160;8.580;2023-08-30T01:26:42;16.80;99.90
46490;DHT22;32204;49.160;8.580;2023-08-30T01:29:11;16.70;1.00
46490;DHT22;32204;49.160;8.580;2023-08-30T01:31:37;16.70;99.90
46490;DHT22;32204;49.160;8.580;2023-08-30T01:34:03;16.60;99.90
46490;DHT22;32204;49.160;8.580;2023-08-30T01:36:29;16.70;99.90
46490;DHT22;32204;49.160;8.580;2023-08-30T01:38:55;16.60;99.90
46490;DHT22;32204;49.160;8.580;2023-08-30T01:41:21;16.60;99.90
46490;DHT22;32204;49.160;8.580;2023-08-30T01:43:48;16.50;1.00
46490;DHT22;32204;49.160;8.580;2023-08-30T01:46:14;16.50;40.00
46490;DHT22;32204;49.160;8.580;2023-08-30T01:48:40;16.40;1.00
46490;DHT22;32204;49.160;8.580;2023-08-30T01:51:06;16.50;99.90
46490;DHT22;32204;49.160;8.580;2023-08-30T01:53:32;16.50;22.20
46490;DHT22;32204;49.160;8.580;2023-08-30T01:55:58;16.40;1.00
46490;DHT22;32204;49.160;8.580;2023-08-30T01:58:24;16.40;63.40
46490;DHT22;32204;49.160;8.580;2023-08-30T02:00:49;16.40;99.90
46490;DHT22;32204;49.160;8.580;2023-08-30T02:03:15;16.40;1.00
46490;DHT22;32204;49.160;8.580;2023-08-30T02:08:14;16.40;99.90
46490;DHT22;32204;49.160;8.580;2023-08-30T02:10:40;16.40;1.00
46490;DHT22;32204;49.160;8.580;2023-08-30T02:13:06;16.40;99.90
46490;DHT22;32204;49.160;8.580;2023-08-30T02:15:33;16.40;99.90
46490;DHT22;32204;49.160;8.580;2023-08-30T02:17:59;16.40;99.90
46490;DHT22;32204;49.160;8.580;2023-08-30T02:20:25;16.40;99.90
46490;DHT22;32204;49.160;8.580;2023-08-30T02:22:51;16.40;99.90
46490;DHT22;32204;49.160;8.580;2023-08-30T02:25:16;16.30;99.90
46490;DHT22;32204;49.160;8.580;2023-08-30T02:27:42;16.30;99.90
46490;DHT22;32204;49.160;8.580;2023-08-30T02:30:07;16.30;1.00
46490;DHT22;32204;49.160;8.580;2023-08-30T02:32:33;16.40;1.00
46490;DHT22;32204;49.160;8.580;2023-08-30T02:34:59;16.40;99.90
46490;DHT22;32204;49.160;8.580;2023-08-30T02:37:24;16.30;99.90
46490;DHT22;32204;49.160;8.580;2023-08-30T02:39:50;16.30;1.00
46490;DHT22;32204;49.160;8.580;2023-08-30T02:42:16;16.40;1.00
46490;DHT22;32204;49.160;8.580;2023-08-30T02:44:41;16.50;1.00
46490;DHT22;32204;49.160;8.580;2023-08-30T02:47:07;16.50;99.90
46490;DHT22;32204;49.160;8.580;2023-08-30T02:49:32;16.40;99.90
46490;DHT22;32204;49.160;8.580;2023-08-30T02:51:58;16.40;99.90
46490;DHT22;32204;49.160;8.580;2023-08-30T02:54:23;16.30;1.00
46490;DHT22;32204;49.160;8.580;2023-08-30T02:56:49;16.30;1.00
46490;DHT22;32204;49.160;8.580;2023-08-30T02:59:15;16.40;1.00
46490;DHT22;32204;49.160;8.580;2023-08-30T03:01:40;16.40;1.00
46490;DHT22;32204;49.160;8.580;2023-08-30T03:04:06;16.30;1.00
46490;DHT22;32204;49.160;8.580;2023-08-30T03:06:32;16.30;1.00
46490;DHT22;32204;49.160;8.580;2023-08-30T03:08:58;16.30;1.00
46490;DHT22;32204;49.160;8.580;2023-08-30T03:11:23;16.30;42.40
46490;DHT22;32204;49.160;8.580;2023-08-30T03:13:49;16.30;96.00
46490;DHT22;32204;49.160;8.580;2023-08-30T03:16:16;16.30;99.90
46490;DHT22;32204;49.160;8.580;2023-08-30T03:18:42;16.30;1.00
46490;DHT22;32204;49.160;8.580;2023-08-30T03:21:07;16.30;1.00
46490;DHT22;32204;49.160;8.580;2023-08-30T03:23:33;16.20;99.90
46490;DHT22;32204;49.160;8.580;2023-08-30T03:25:59;16.20;99.90
46490;DHT22;32204;49.160;8.580;2023-08-30T03:28:25;16.20;99.90
46490;DHT22;32204;49.160;8.580;2023-08-30T03:30:50;16.30;99.90
46490;DHT22;32204;49.160;8.580;2023-08-30T03:33:15;16.20;99.90
46490;DHT22;32204;49.160;8.580;2023-08-30T03:35:41;16.20;99.90
46490;DHT22;32204;49.160;8.580;2023-08-30T03:38:06;16.30;99.90
46490;DHT22;32204;49.160;8.580;2023-08-30T03:40:32;16.30;99.90
46490;DHT22;32204;49.160;8.580;2023-08-30T03:42:57;16.20;99.90
46490;DHT22;32204;49.160;8.580;2023-08-30T03:45:23;16.30;99.90
46490;DHT22;32204;49.160;8.580;2023-08-30T03:47:49;16.20;99.90
46490;DHT22;32204;49.160;8.580;2023-08-30T03:50:15;16.30;99.90
46490;DHT22;32204;49.160;8.580;2023-08-30T03:52:40;16.30;99.90
46490;DHT22;32204;49.160;8.580;2023-08-30T03:55:06;16.30;99.90
46490;DHT22;32204;49.160;8.580;2023-08-30T03:57:31;16.30;99.90
46490;DHT22;32204;49.160;8.580;2023-08-30T03:59:57;16.40;99.90
46490;DHT22;32204;49.160;8.580;2023-08-30T04:02:22;16.40;99.90
46490;DHT22;32204;49.160;8.580;2023-08-30T04:04:48;16.40;99.90
46490;DHT22;32204;49.160;8.580;2023-08-30T04:07:14;16.40;99.90
46490;DHT22;32204;49.160;8.580;2023-08-30T04:09:39;16.40;99.90
46490;DHT22;32204;49.160;8.580;2023-08-30T04:12:05;16.30;99.90
46490;DHT22;32204;49.160;8.580;2023-08-30T04:14:31;16.40;99.90
46490;DHT22;32204;49.160;8.580;2023-08-30T04:16:56;16.40;99.90
46490;DHT22;32204;49.160;8.580;2023-08-30T04:19:22;16.30;99.90
46490;DHT22;32204;49.160;8.580;2023-08-30T04:21:47;16.40;99.90
46490;DHT22;32204;49.160;8.580;2023-08-30T04:24:13;16.40;99.90
46490;DHT22;32204;49.160;8.580;2023-08-30T04:26:39;16.40;99.90
46490;DHT22;32204;49.160;8.580;2023-08-30T04:29:05;16.40;99.90
46490;DHT22;32204;49.160;8.580;2023-08-30T04:31:31;16.50;99.90
46490;DHT22;32204;49.160;8.580;2023-08-30T04:33:56;16.50;75.00
46490;DHT22;32204;49.160;8.580;2023-08-30T04:36:22;16.50;1.00
46490;DHT22;32204;49.160;8.580;2023-08-30T04:38:47;16.50;1.00
46490;DHT22;32204;49.160;8.580;2023-08-30T04:41:13;16.40;99.90
46490;DHT22;32204;49.160;8.580;2023-08-30T04:43:38;16.40;99.90
46490;DHT22;32204;49.160;8.580;2023-08-30T04:46:04;16.40;99.90
46490;DHT22;32204;49.160;8.580;2023-08-30T04:48:29;16.40;99.90
46490;DHT22;32204;49.160;8.580;2023-08-30T04:50:58;16.40;99.90
46490;DHT22;32204;49.160;8.580;2023-08-30T04:53:24;16.40;99.90
46490;DHT22;32204;49.160;8.580;2023-08-30T04:55:49;16.50;99.90
46490;DHT22;32204;49.160;8.580;2023-08-30T04:58:15;16.50;13.70
46490;DHT22;32204;49.160;8.580;2023-08-30T05:00:40;16.50;1.00
46490;DHT22;32204;49.160;8.580;2023-08-30T05:03:06;16.40;1.00
46490;DHT22;32204;49.160;8.580;2023-08-30T05:05:31;16.40;49.10
46490;DHT22;32204;49.160;8.580;2023-08-30T05:07:57;16.40;99.90
46490;DHT22;32204;49.160;8.580;2023-08-30T05:10:22;16.40;99.90
46490;DHT22;32204;49.160;8.580;2023-08-30T05:12:48;16.50;65.20
46490;DHT22;32204;49.160;8.580;2023-08-30T05:15:17;16.60;1.00
46490;DHT22;32204;49.160;8.580;2023-08-30T05:17:43;16.50;99.90
46490;DHT22;32204;49.160;8.580;2023-08-30T05:20:08;16.60;99.90
46490;DHT22;32204;49.160;8.580;2023-08-30T05:22:34;16.60;99.90
46490;DHT22;32204;49.160;8.580;2023-08-30T05:24:59;16.70;99.90
46490;DHT22;32204;49.160;8.580;2023-08-30T05:27:26;16.70;99.90
46490;DHT22;32204;49.160;8.580;2023-08-30T05:29:51;16.70;99.90
46490;DHT22;32204;49.160;8.580;2023-08-30T05:32:17;16.70;3.90
46490;DHT22;32204;49.160;8.580;2023-08-30T05:34:42;16.60;92.20
46490;DHT22;32204;49.160;8.580;2023-08-30T05:37:08;16.60;99.90
46490;DHT22;32204;49.160;8.580;2023-08-30T05:39:34;16.50;99.90
46490;DHT22;32204;49.160;8.580;2023-08-30T05:41:59;16.50;99.90
46490;DHT22;32204;49.160;8.580;2023-08-30T05:44:25;16.50;99.90
46490;DHT22;32204;49.160;8.580;2023-08-30T05:46:51;16.50;1.00
46490;DHT22;32204;49.160;8.580;2023-08-30T05:49:16;16.60;1.00
46490;DHT22;32204;49.160;8.580;2023-08-30T05:51:42;16.60;99.90
46490;DHT22;32204;49.160;8.580;2023-08-30T05:54:07;16.70;99.90
46490;DHT22;32204;49.160;8.580;2023-08-30T05:56:33;16.60;99.90
46490;DHT22;32204;49.160;8.580;2023-08-30T05:58:58;16.60;99.90
46490;DHT22;32204;49.160;8.580;2023-08-30T06:01:23;16.70;99.90
46490;DHT22;32204;49.160;8.580;2023-08-30T06:03:50;16.70;17.20
46490;DHT22;32204;49.160;8.580;2023-08-30T06:06:15;16.70;76.50
46490;DHT22;32204;49.160;8.580;2023-08-30T06:08:41;16.70;99.90
46490;DHT22;32204;49.160;8.580;2023-08-30T06:11:06;16.80;99.90
46490;DHT22;32204;49.160;8.580;2023-08-30T06:13:32;16.90;94.40
46490;DHT22;32204;49.160;8.580;2023-08-30T06:15:57;16.90;1.00
46490;DHT22;32204;49.160;8.580;2023-08-30T06:18:23;16.90;99.90
46490;DHT22;32204;49.160;8.580;2023-08-30T06:20:49;16.90;16.20
46490;DHT22;32204;49.160;8.580;2023-08-30T06:23:14;17.00;1.00
46490;DHT22;32204;49.160;8.580;2023-08-30T06:25:41;17.10;99.90
46490;DHT22;32204;49.160;8.580;2023-08-30T06:28:07;17.20;1.00
46490;DHT22;32204;49.160;8.580;2023-08-30T06:30:32;17.20;99.90
46490;DHT22;32204;49.160;8.580;2023-08-30T06:32:58;17.20;99.90
46490;DHT22;32204;49.160;8.580;2023-08-30T06:35:23;17.20;1.00
46490;DHT22;32204;49.160;8.580;2023-08-30T06:37:49;17.20;99.90
46490;DHT22;32204;49.160;8.580;2023-08-30T06:40:15;17.20;99.90
46490;DHT22;32204;49.160;8.580;2023-08-30T06:42:40;17.30;1.00
46490;DHT22;32204;49.160;8.580;2023-08-30T06:45:06;17.40;99.90
46490;DHT22;32204;49.160;8.580;2023-08-30T06:47:31;17.50;99.90
46490;DHT22;32204;49.160;8.580;2023-08-30T06:49:57;17.40;99.90
46490;DHT22;32204;49.160;8.580;2023-08-30T06:52:23;17.30;1.00
46490;DHT22;32204;49.160;8.580;2023-08-30T06:54:48;17.30;20.60
46490;DHT22;32204;49.160;8.580;2023-08-30T06:57:14;17.40;1.00
46490;DHT22;32204;49.160;8.580;2023-08-30T06:59:39;17.80;99.90
46490;DHT22;32204;49.160;8.580;2023-08-30T07:02:05;18.40;1.00
46490;DHT22;32204;49.160;8.580;2023-08-30T07:04:31;18.70;99.90
46490;DHT22;32204;49.160;8.580;2023-08-30T07:06:56;18.80;99.90
46490;DHT22;32204;49.160;8.580;2023-08-30T07:09:22;18.60;99.90
46490;DHT22;32204;49.160;8.580;2023-08-30T07:11:54;18.60;99.90
46490;DHT22;32204;49.160;8.580;2023-08-30T07:14:20;18.50;99.90
46490;DHT22;32204;49.160;8.580;2023-08-30T07:16:45;18.50;99.90
46490;DHT22;32204;49.160;8.580;2023-08-30T07:19:11;18.40;99.90
46490;DHT22;32204;49.160;8.580;2023-08-30T07:21:36;18.20;1.00
46490;DHT22;32204;49.160;8.580;2023-08-30T07:24:04;18.10;31.20
46490;DHT22;32204;49.160;8.580;2023-08-30T07:26:30;18.20;89.50
46490;DHT22;32204;49.160;8.580;2023-08-30T07:28:56;18.10;51.10
46490;DHT22;32204;49.160;8.580;2023-08-30T07:31:21;18.10;99.90
46490;DHT22;32204;49.160;8.580;2023-08-30T07:33:47;18.20;99.90
46490;DHT22;32204;49.160;8.580;2023-08-30T07:36:12;18.20;1.00
46490;DHT22;32204;49.160;8.580;2023-08-30T07:38:38;18.20;35.20
46490;DHT22;32204;49.160;8.580;2023-08-30T07:41:03;18.30;99.90
46490;DHT22;32204;49.160;8.580;2023-08-30T07:43:29;18.30;99.90
46490;DHT22;32204;49.160;8.580;2023-08-30T07:45:54;18.20;23.10
46490;DHT22;32204;49.160;8.580;2023-08-30T07:48:20;18.30;13.60
46490;DHT22;32204;49.160;8.580;2023-08-30T07:50:45;18.50;1.00
46490;DHT22;32204;49.160;8.580;2023-08-30T07:53:11;18.60;99.90
46490;DHT22;32204;49.160;8.580;2023-08-30T07:55:36;18.70;99.90
46490;DHT22;32204;49.160;8.580;2023-08-30T07:58:02;18.70;99.90
46490;DHT22;32204;49.160;8.580;2023-08-30T08:00:28;18.70;99.90
46490;DHT22;32204;49.160;8.580;2023-08-30T08:02:54;18.80;32.20
46490;DHT22;32204;49.160;8.580;2023-08-30T08:05:19;18.90;25.10
46490;DHT22;32204;49.160;8.580;2023-08-30T08:07:45;19.00;1.00
46490;DHT22;32204;49.160;8.580;2023-08-30T08:10:10;19.20;1.00
46490;DHT22;32204;49.160;8.580;2023-08-30T08:12:36;19.20;1.00
46490;DHT22;32204;49.160;8.580;2023-08-30T08:15:01;19.30;1.00
46490;DHT22;32204;49.160;8.580;2023-08-30T08:17:27;19.30;99.90
46490;DHT22;32204;49.160;8.580;2023-08-30T08:19:52;19.40;99.90
46490;DHT22;32204;49.160;8.580;2023-08-30T08:22:18;19.40;99.90
46490;DHT22;32204;49.160;8.580;2023-08-30T08:24:44;19.40;99.90
46490;DHT22;32204;49.160;8.580;2023-08-30T08:27:11;19.30;99.90
46490;DHT22;32204;49.160;8.580;2023-08-30T08:29:36;19.30;99.90
46490;DHT22;32204;49.160;8.580;2023-08-30T08:32:03;19.20;99.90
46490;DHT22;32204;49.160;8.580;2023-08-30T08:34:28;19.30;99.90
46490;DHT22;32204;49.160;8.580;2023-08-30T08:36:54;19.30;99.90
46490;DHT22;32204;49.160;8.580;2023-08-30T08:39:20;19.30;99.90
46490;DHT22;32204;49.160;8.580;2023-08-30T08:41:45;19.40;99.90
46490;DHT22;32204;49.160;8.580;2023-08-30T08:44:12;19.50;99.90
46490;DHT22;32204;49.160;8.580;2023-08-30T08:46:38;19.60;99.90
46490;DHT22;32204;49.160;8.580;2023-08-30T08:49:08;19.60;99.90
46490;DHT22;32204;49.160;8.580;2023-08-30T08:51:34;19.70;99.90
46490;DHT22;32204;49.160;8.580;2023-08-30T08:54:02;19.80;99.90
46490;DHT22;32204;49.160;8.580;2023-08-30T08:56:28;20.10;99.90
46490;DHT22;32204;49.160;8.580;2023-08-30T08:58:54;20.20;99.90
46490;DHT22;32204;49.160;8.580;2023-08-30T09:01:19;20.20;99.90
46490;DHT22;32204;49.160;8.580;2023-08-30T09:03:45;20.20;99.90
46490;DHT22;32204;49.160;8.580;2023-08-30T09:06:10;20.20;99.90
46490;DHT22;32204;49.160;8.580;2023-08-30T09:08:36;20.20;99.90
46490;DHT22;32204;49.160;8.580;2023-08-30T09:11:02;20.10;99.90
46490;DHT22;32204;49.160;8.580;2023-08-30T09:13:28;20.10;99.90
46490;DHT22;32204;49.160;8.580;2023-08-30T09:15:55;20.10;66.20
46490;DHT22;32204;49.160;8.580;2023-08-30T09:18:21;20.10;10.90
46490;DHT22;32204;49.160;8.580;2023-08-30T09:20:47;20.10;8.20
46490;DHT22;32204;49.160;8.580;2023-08-30T09:23:16;20.30;59.20
46490;DHT22;32204;49.160;8.580;2023-08-30T09:25:42;20.40;16.00
46490;DHT22;32204;49.160;8.580;2023-08-30T09:28:07;20.50;1.00
46490;DHT22;32204;49.160;8.580;2023-08-30T09:30:33;20.40;18.90
46490;DHT22;32204;49.160;8.580;2023-08-30T09:33:02;20.60;12.90
46490;DHT22;32204;49.160;8.580;2023-08-30T09:35:28;20.70;1.00
46490;DHT22;32204;49.160;8.580;2023-08-30T09:37:53;20.70;1.00
46490;DHT22;32204;49.160;8.580;2023-08-30T09:40:19;20.70;1.00
46490;DHT22;32204;49.160;8.580;2023-08-30T09:42:45;20.60;1.00
46490;DHT22;32204;49.160;8.580;2023-08-30T09:45:17;20.80;1.00
46490;DHT22;32204;49.160;8.580;2023-08-30T09:47:46;20.80;1.00
46490;DHT22;32204;49.160;8.580;2023-08-30T09:50:11;20.80;1.00
46490;DHT22;32204;49.160;8.580;2023-08-30T09:52:37;21.00;1.00
46490;DHT22;32204;49.160;8.580;2023-08-30T09:55:03;21.00;1.00
46490;DHT22;32204;49.160;8.580;2023-08-30T09:57:29;20.90;99.90
46490;DHT22;32204;49.160;8.580;2023-08-30T09:59:55;20.90;99.90
46490;DHT22;32204;49.160;8.580;2023-08-30T10:02:22;21.00;99.90
46490;DHT22;32204;49.160;8.580;2023-08-30T10:04:47;21.20;99.90
46490;DHT22;32204;49.160;8.580;2023-08-30T10:07:13;21.10;99.90
46490;DHT22;32204;49.160;8.580;2023-08-30T10:09:39;21.10;99.90
46490;DHT22;32204;49.160;8.580;2023-08-30T10:12:05;21.10;99.90
46490;DHT22;32204;49.160;8.580;2023-08-30T10:14:31;21.10;99.90
46490;DHT22;32204;49.160;8.580;2023-08-30T10:17:03;21.20;99.90
46490;DHT22;32204;49.160;8.580;2023-08-30T10:19:29;21.20;99.90
46490;DHT22;32204;49.160;8.580;2023-08-30T10:22:01;21.20;99.90
46490;DHT22;32204;49.160;8.580;2023-08-30T10:24:29;21.10;99.90
46490;DHT22;32204;49.160;8.580;2023-08-30T10:26:55;21.00;99.90
46490;DHT22;32204;49.160;8.580;2023-08-30T10:29:21;21.10;1.00
46490;DHT22;32204;49.160;8.580;2023-08-30T10:31:49;21.10;99.90
46490;DHT22;32204;49.160;8.580;2023-08-30T10:34:15;21.40;99.90
46490;DHT22;32204;49.160;8.580;2023-08-30T10:36:55;21.30;99.90
46490;DHT22;32204;49.160;8.580;2023-08-30T10:39:26;21.30;99.90
46490;DHT22;32204;49.160;8.580;2023-08-30T10:41:58;21.30;99.90
46490;DHT22;32204;49.160;8.580;2023-08-30T10:44:23;21.30;99.90
46490;DHT22;32204;49.160;8.580;2023-08-30T10:46:53;21.50;99.90
46490;DHT22;32204;49.160;8.580;2023-08-30T10:49:19;21.70;1.00
46490;DHT22;32204;49.160;8.580;2023-08-30T10:51:44;21.80;99.90
46490;DHT22;32204;49.160;8.580;2023-08-30T10:54:13;21.80;99.90
46490;DHT22;32204;49.160;8.580;2023-08-30T10:56:54;21.70;99.90
46490;DHT22;32204;49.160;8.580;2023-08-30T10:59:21;21.80;99.90
46490;DHT22;32204;49.160;8.580;2023-08-30T11:01:47;21.90;99.90
46490;DHT22;32204;49.160;8.580;2023-08-30T11:04:14;21.90;99.90
46490;DHT22;32204;49.160;8.580;2023-08-30T11:06:40;21.90;99.90
46490;DHT22;32204;49.160;8.580;2023-08-30T11:09:06;21.80;99.90
46490;DHT22;32204;49.160;8.580;2023-08-30T11:11:33;21.80;99.90
46490;DHT22;32204;49.160;8.580;2023-08-30T11:14:08;22.00;99.90
46490;DHT22;32204;49.160;8.580;2023-08-30T11:16:36;22.10;99.90
46490;DHT22;32204;49.160;8.580;2023-08-30T11:19:06;22.30;99.90
46490;DHT22;32204;49.160;8.580;2023-08-30T11:21:32;22.30;99.90
46490;DHT22;32204;49.160;8.580;2023-08-30T11:23:58;22.20;99.90
46490;DHT22;32204;49.160;8.580;2023-08-30T11:26:24;22.30;99.90
46490;DHT22;32204;49.160;8.580;2023-08-30T11:28:50;22.30;99.90
46490;DHT22;32204;49.160;8.580;2023-08-30T11:31:21;22.40;99.90
46490;DHT22;32204;49.160;8.580;2023-08-30T11:33:54;22.60;99.90
46490;DHT22;32204;49.160;8.580;2023-08-30T11:36:21;22.70;99.90
46490;DHT22;32204;49.160;8.580;2023-08-30T11:38:50;22.60;99.90
46490;DHT22;32204;49.160;8.580;2023-08-30T11:41:16;22.50;99.90
46490;DHT22;32204;49.160;8.580;2023-08-30T11:43:42;22.50;99.90
46490;DHT22;32204;49.160;8.580;2023-08-30T11:46:08;22.50;99.90
46490;DHT22;32204;49.160;8.580;2023-08-30T11:48:34;22.50;99.90
46490;DHT22;32204;49.160;8.580;2023-08-30T11:51:00;22.60;99.90
46490;DHT22;32204;49.160;8.580;2023-08-30T11:53:25;22.70;99.90
46490;DHT22;32204;49.160;8.580;2023-08-30T11:55:52;22.90;99.90
46490;DHT22;32204;49.160;8.580;2023-08-30T11:58:18;23.00;99.90
46490;DHT22;32204;49.160;8.580;2023-08-30T12:00:44;23.00;99.90
46490;DHT22;32204;49.160;8.580;2023-08-30T12:03:12;23.10;99.90
46490;DHT22;32204;49.160;8.580;2023-08-30T12:05:43;23.20;99.90
46490;DHT22;32204;49.160;8.580;2023-08-30T12:08:17;23.10;99.90
46490;DHT22;32204;49.160;8.580;2023-08-30T12:10:42;23.10;99.90
46490;DHT22;32204;49.160;8.580;2023-08-30T12:13:08;23.10;99.90
46490;DHT22;32204;49.160;8.580;2023-08-30T12:15:33;23.20;99.90
46490;DHT22;32204;49.160;8.580;2023-08-30T12:18:05;23.20;99.90
46490;DHT22;32204;49.160;8.580;2023-08-30T12:20:31;23.10;99.90
46490;DHT22;32204;49.160;8.580;2023-08-30T12:22:56;23.10;99.90
46490;DHT22;32204;49.160;8.580;2023-08-30T12:25:23;23.00;99.90
46490;DHT22;32204;49.160;8.580;2023-08-30T12:27:49;22.80;99.90
46490;DHT22;32204;49.160;8.580;2023-08-30T12:30:15;23.00;99.90
46490;DHT22;32204;49.160;8.580;2023-08-30T12:32:44;22.90;99.90
46490;DHT22;32204;49.160;8.580;2023-08-30T12:35:12;22.80;99.90
46490;DHT22;32204;49.160;8.580;2023-08-30T12:37:38;22.80;99.90
46490;DHT22;32204;49.160;8.580;2023-08-30T12:40:04;23.00;99.90
46490;DHT22;32204;49.160;8.580;2023-08-30T12:42:29;23.10;99.90
46490;DHT22;32204;49.160;8.580;2023-08-30T12:44:55;23.10;99.90
46490;DHT22;32204;49.160;8.580;2023-08-30T12:47:20;23.00;99.90
46490;DHT22;32204;49.160;8.580;2023-08-30T12:49:46;23.10;99.90
46490;DHT22;32204;49.160;8.580;2023-08-30T12:52:12;23.10;99.90
46490;DHT22;32204;49.160;8.580;2023-08-30T12:54:37;23.20;99.90
46490;DHT22;32204;49.160;8.580;2023-08-30T12:57:03;23.40;99.90
46490;DHT22;32204;49.160;8.580;2023-08-30T12:59:32;23.40;99.90
46490;DHT22;32204;49.160;8.580;2023-08-30T13:01:57;23.50;99.90
46490;DHT22;32204;49.160;8.580;2023-08-30T13:04:23;23.50;99.90
46490;DHT22;32204;49.160;8.580;2023-08-30T13:06:48;23.60;99.90
46490;DHT22;32204;49.160;8.580;2023-08-30T13:09:14;23.40;99.90
46490;DHT22;32204;49.160;8.580;2023-08-30T13:11:39;23.20;99.90
46490;DHT22;32204;49.160;8.580;2023-08-30T13:14:05;23.20;99.90
46490;DHT22;32204;49.160;8.580;2023-08-30T13:16:30;23.30;99.90
46490;DHT22;32204;49.160;8.580;2023-08-30T13:18:55;23.50;99.90
46490;DHT22;32204;49.160;8.580;2023-08-30T13:21:21;23.60;99.90
46490;DHT22;32204;49.160;8.580;2023-08-30T13:23:46;23.60;99.90
46490;DHT22;32204;49.160;8.580;2023-08-30T13:26:12;23.70;99.90
46490;DHT22;32204;49.160;8.580;2023-08-30T13:28:37;23.50;99.90
46490;DHT22;32204;49.160;8.580;2023-08-30T13:31:06;23.50;99.90
46490;DHT22;32204;49.160;8.580;2023-08-30T13:33:31;23.70;99.90
46490;DHT22;32204;49.160;8.580;2023-08-30T13:35:57;23.90;99.90
46490;DHT22;32204;49.160;8.580;2023-08-30T13:38:22;24.00;99.90
46490;DHT22;32204;49.160;8.580;2023-08-30T13:40:48;24.10;99.90
46490;DHT22;32204;49.160;8.580;2023-08-30T13:43:14;24.10;99.90
46490;DHT22;32204;49.160;8.580;2023-08-30T13:45:39;24.10;99.90
46490;DHT22;32204;49.160;8.580;2023-08-30T13:48:05;24.10;99.90
46490;DHT22;32204;49.160;8.580;2023-08-30T13:50:30;24.20;99.90
46490;DHT22;32204;49.160;8.580;2023-08-30T13:52:57;24.30;99.90
46490;DHT22;32204;49.160;8.580;2023-08-30T13:55:23;24.30;99.90
46490;DHT22;32204;49.160;8.580;2023-08-30T13:57:48;24.30;99.90
46490;DHT22;32204;49.160;8.580;2023-08-30T14:00:14;24.30;99.90
46490;DHT22;32204;49.160;8.580;2023-08-30T14:02:39;24.30;99.90
46490;DHT22;32204;49.160;8.580;2023-08-30T14:05:05;24.40;99.90
46490;DHT22;32204;49.160;8.580;2023-08-30T14:07:31;24.50;99.90
46490;DHT22;32204;49.160;8.580;2023-08-30T14:09:56;24.50;99.90
46490;DHT22;32204;49.160;8.580;2023-08-30T14:12:23;24.20;99.90
46490;DHT22;32204;49.160;8.580;2023-08-30T14:14:48;24.10;99.90
46490;DHT22;32204;49.160;8.580;2023-08-30T14:17:14;24.10;99.90
46490;DHT22;32204;49.160;8.580;2023-08-30T14:19:39;24.20;99.90
46490;DHT22;32204;49.160;8.580;2023-08-30T14:22:05;24.40;99.90
46490;DHT22;32204;49.160;8.580;2023-08-30T14:24:31;24.40;99.90
46490;DHT22;32204;49.160;8.580;2023-08-30T14:26:57;24.60;99.90
46490;DHT22;32204;49.160;8.580;2023-08-30T14:29:23;24.40;99.90
46490;DHT22;32204;49.160;8.580;2023-08-30T14:31:48;24.20;99.90
46490;DHT22;32204;49.160;8.580;2023-08-30T14:34:14;24.30;99.90
46490;DHT22;32204;49.160;8.580;2023-08-30T14:36:39;24.40;99.90
46490;DHT22;32204;49.160;8.580;2023-08-30T14:39:08;24.60;99.90
46490;DHT22;32204;49.160;8.580;2023-08-30T14:41:33;24.60;99.90
46490;DHT22;32204;49.160;8.580;2023-08-30T14:44:01;24.40;99.90
46490;DHT22;32204;49.160;8.580;2023-08-30T14:46:28;24.30;99.90
46490;DHT22;32204;49.160;8.580;2023-08-30T14:48:54;24.40;99.90
46490;DHT22;32204;49.160;8.580;2023-08-30T14:51:20;24.40;99.90
46490;DHT22;32204;49.160;8.580;2023-08-30T14:53:45;24.50;99.90
46490;DHT22;32204;49.160;8.580;2023-08-30T14:56:11;24.40;99.90
46490;DHT22;32204;49.160;8.580;2023-08-30T14:58:37;24.30;99.90
46490;DHT22;32204;49.160;8.580;2023-08-30T15:01:02;24.40;99.90
46490;DHT22;32204;49.160;8.580;2023-08-30T15:03:28;24.40;99.90
46490;DHT22;32204;49.160;8.580;2023-08-30T15:05:54;24.50;99.90
46490;DHT22;32204;49.160;8.580;2023-08-30T15:08:22;24.60;99.90
46490;DHT22;32204;49.160;8.580;2023-08-30T15:10:49;24.70;99.90
46490;DHT22;32204;49.160;8.580;2023-08-30T15:13:14;24.80;99.90
46490;DHT22;32204;49.160;8.580;2023-08-30T15:15:40;24.90;99.90
46490;DHT22;32204;49.160;8.580;2023-08-30T15:18:05;24.90;99.90
46490;DHT22;32204;49.160;8.580;2023-08-30T15:20:31;24.70;99.90
46490;DHT22;32204;49.160;8.580;2023-08-30T15:22:56;24.60;99.90
46490;DHT22;32204;49.160;8.580;2023-08-30T15:25:24;24.40;99.90
46490;DHT22;32204;49.160;8.580;2023-08-30T15:27:49;24.10;99.90